sensor_id;sensor_type;location;lat;lon;timestamp;pressure;altitude;pressure_sealevel;temperature;humidity
38900;BME280;24660;43.238;26.576;2022-11-09T00:00:15;100114.91;;;6.49;100.00
38900;BME280;24660;43.238;26.576;2022-11-09T00:02:41;100115.16;;;6.28;100.00
38900;BME280;24660;43.238;26.576;2022-11-09T00:05:06;100118.28;;;6.18;100.00
38900;BME280;24660;43.238;26.576;2022-11-09T00:07:32;100119.00;;;6.05;100.00
38900;BME280;24660;43.238;26.576;2022-11-09T00:09:57;100121.03;;;6.17;100.00
38900;BME280;24660;43.238;26.576;2022-11-09T00:12:22;100124.41;;;6.20;100.00
38900;BME280;24660;43.238;26.576;2022-11-09T00:14:48;100116.91;;;6.11;100.00
38900;BME280;24660;43.238;26.576;2022-11-09T00:17:13;100121.75;;;6.53;100.00
38900;BME280;24660;43.238;26.576;2022-11-09T00:19:38;100117.13;;;6.24;100.00
38900;BME280;24660;43.238;26.576;2022-11-09T00:22:03;100113.50;;;6.09;100.00
38900;BME280;24660;43.238;26.576;2022-11-09T00:24:29;100115.75;;;6.00;100.00
38900;BME280;24660;43.238;26.576;2022-11-09T00:26:54;100117.13;;;6.24;100.00
38900;BME280;24660;43.238;26.576;2022-11-09T00:29:19;100107.94;;;5.97;100.00
38900;BME280;24660;43.238;26.576;2022-11-09T00:31:45;100116.50;;;5.84;100.00
38900;BME280;24660;43.238;26.576;2022-11-09T00:34:10;100112.47;;;6.12;100.00
38900;BME280;24660;43.238;26.576;2022-11-09T00:36:35;100101.91;;;5.76;100.00
38900;BME280;24660;43.238;26.576;2022-11-09T00:39:01;100099.31;;;5.74;100.00
38900;BME280;24660;43.238;26.576;2022-11-09T00:41:26;100106.13;;;6.14;100.00
38900;BME280;24660;43.238;26.576;2022-11-09T00:43:52;100096.19;;;6.18;100.00
38900;BME280;24660;43.238;26.576;2022-11-09T00:46:17;100095.66;;;6.29;100.00
38900;BME280;24660;43.238;26.576;2022-11-09T00:48:43;100087.44;;;6.33;100.00
38900;BME280;24660;43.238;26.576;2022-11-09T00:51:09;100078.19;;;6.24;100.00
38900;BME280;24660;43.238;26.576;2022-11-09T00:53:34;100081.09;;;6.20;100.00
38900;BME280;24660;43.238;26.576;2022-11-09T00:56:02;100077.41;;;5.88;100.00
38900;BME280;24660;43.238;26.576;2022-11-09T00:58:28;100084.59;;;6.03;100.00
38900;BME280;24660;43.238;26.576;2022-11-09T01:00:54;100094.34;;;6.03;100.00
38900;BME280;24660;43.238;26.576;2022-11-09T01:03:20;100085.56;;;6.35;100.00
38900;BME280;24660;43.238;26.576;2022-11-09T01:05:46;100081.16;;;6.51;100.00
38900;BME280;24660;43.238;26.576;2022-11-09T01:08:11;100082.47;;;6.27;100.00
38900;BME280;24660;43.238;26.576;2022-11-09T01:10:39;100083.13;;;5.98;100.00
38900;BME280;24660;43.238;26.576;2022-11-09T01:13:04;100082.44;;;5.94;100.00
38900;BME280;24660;43.238;26.576;2022-11-09T01:15:29;100089.88;;;5.86;100.00
38900;BME280;24660;43.238;26.576;2022-11-09T01:17:55;100089.53;;;5.93;100.00
38900;BME280;24660;43.238;26.576;2022-11-09T01:20:20;100089.97;;;5.84;100.00
38900;BME280;24660;43.238;26.576;2022-11-09T01:22:45;100094.13;;;6.07;100.00
38900;BME280;24660;43.238;26.576;2022-11-09T01:25:11;100093.31;;;6.22;100.00
38900;BME280;24660;43.238;26.576;2022-11-09T01:27:36;100092.19;;;5.93;100.00
38900;BME280;24660;43.238;26.576;2022-11-09T01:30:01;100094.34;;;5.51;100.00
38900;BME280;24660;43.238;26.576;2022-11-09T01:32:30;100092.31;;;5.73;100.00
38900;BME280;24660;43.238;26.576;2022-11-09T01:34:55;100099.41;;;5.73;100.00
38900;BME280;24660;43.238;26.576;2022-11-09T01:37:21;100096.72;;;5.91;100.00
38900;BME280;24660;43.238;26.576;2022-11-09T01:39:46;100099.34;;;6.09;100.00
38900;BME280;24660;43.238;26.576;2022-11-09T01:42:11;100088.72;;;5.74;100.00
38900;BME280;24660;43.238;26.576;2022-11-09T01:44:37;100101.34;;;5.69;100.00
38900;BME280;24660;43.238;26.576;2022-11-09T01:47:03;100097.44;;;5.76;100.00
38900;BME280;24660;43.238;26.576;2022-11-09T01:49:39;100105.28;;;5.79;100.00
38900;BME280;24660;43.238;26.576;2022-11-09T01:52:13;100101.00;;;5.41;100.00
38900;BME280;24660;43.238;26.576;2022-11-09T01:54:41;100098.03;;;5.29;100.00
38900;BME280;24660;43.238;26.576;2022-11-09T01:57:10;100107.31;;;5.21;100.00
38900;BME280;24660;43.238;26.576;2022-11-09T01:59:37;100107.94;;;5.26;100.00
38900;BME280;24660;43.238;26.576;2022-11-09T02:02:05;100096.69;;;5.02;100.00
38900;BME280;24660;43.238;26.576;2022-11-09T02:04:33;100107.53;;;5.33;100.00
38900;BME280;24660;43.238;26.576;2022-11-09T02:06:59;100103.63;;;5.04;100.00
38900;BME280;24660;43.238;26.576;2022-11-09T02:11:51;100103.25;;;4.95;100.00
38900;BME280;24660;43.238;26.576;2022-11-09T02:14:17;100103.22;;;5.50;100.00
38900;BME280;24660;43.238;26.576;2022-11-09T02:16:44;100107.72;;;5.12;100.00
38900;BME280;24660;43.238;26.576;2022-11-09T02:19:10;100102.16;;;4.80;100.00
38900;BME280;24660;43.238;26.576;2022-11-09T02:21:36;100111.84;;;4.81;100.00
38900;BME280;24660;43.238;26.576;2022-11-09T02:24:02;100111.97;;;4.97;100.00
38900;BME280;24660;43.238;26.576;2022-11-09T02:26:29;100109.16;;;5.00;100.00
38900;BME280;24660;43.238;26.576;2022-11-09T02:28:56;100112.31;;;5.44;100.00
38900;BME280;24660;43.238;26.576;2022-11-09T02:31:23;100102.38;;;5.30;100.00
38900;BME280;24660;43.238;26.576;2022-11-09T02:36:16;100100.28;;;4.63;100.00
38900;BME280;24660;43.238;26.576;2022-11-09T02:38:41;100101.66;;;4.53;100.00
38900;BME280;24660;43.238;26.576;2022-11-09T02:41:06;100106.88;;;4.55;100.00
38900;BME280;24660;43.238;26.576;2022-11-09T02:43:32;100111.16;;;4.57;100.00
38900;BME280;24660;43.238;26.576;2022-11-09T02:45:58;100113.03;;;4.74;100.00
38900;BME280;24660;43.238;26.576;2022-11-09T02:48:24;100115.59;;;4.75;100.00
38900;BME280;24660;43.238;26.576;2022-11-09T02:50:49;100116.81;;;5.25;100.00
38900;BME280;24660;43.238;26.576;2022-11-09T02:53:14;100110.00;;;5.19;100.00
38900;BME280;24660;43.238;26.576;2022-11-09T02:55:39;100122.78;;;5.47;100.00
38900;BME280;24660;43.238;26.576;2022-11-09T02:58:05;100108.13;;;5.57;100.00
38900;BME280;24660;43.238;26.576;2022-11-09T03:00:30;100113.41;;;5.40;100.00
38900;BME280;24660;43.238;26.576;2022-11-09T03:02:55;100111.19;;;5.31;100.00
38900;BME280;24660;43.238;26.576;2022-11-09T03:05:21;100113.88;;;5.12;100.00
38900;BME280;24660;43.238;26.576;2022-11-09T03:07:46;100120.47;;;5.03;100.00
38900;BME280;24660;43.238;26.576;2022-11-09T03:10:11;100130.97;;;5.60;100.00
38900;BME280;24660;43.238;26.576;2022-11-09T03:12:36;100128.91;;;5.66;100.00
38900;BME280;24660;43.238;26.576;2022-11-09T03:15:03;100125.94;;;5.73;100.00
38900;BME280;24660;43.238;26.576;2022-11-09T03:17:30;100115.88;;;5.79;100.00
38900;BME280;24660;43.238;26.576;2022-11-09T03:19:55;100119.66;;;5.92;100.00
38900;BME280;24660;43.238;26.576;2022-11-09T03:22:20;100114.16;;;5.78;100.00
38900;BME280;24660;43.238;26.576;2022-11-09T03:24:46;100112.13;;;5.66;100.00
38900;BME280;24660;43.238;26.576;2022-11-09T03:27:11;100120.41;;;5.77;100.00
38900;BME280;24660;43.238;26.576;2022-11-09T03:29:37;100123.19;;;5.74;100.00
38900;BME280;24660;43.238;26.576;2022-11-09T03:32:02;100120.78;;;5.70;100.00
38900;BME280;24660;43.238;26.576;2022-11-09T03:34:28;100111.34;;;5.64;100.00
38900;BME280;24660;43.238;26.576;2022-11-09T03:36:53;100115.56;;;5.85;100.00
38900;BME280;24660;43.238;26.576;2022-11-09T03:39:18;100103.16;;;5.69;100.00
38900;BME280;24660;43.238;26.576;2022-11-09T03:41:44;100107.09;;;5.43;100.00
38900;BME280;24660;43.238;26.576;2022-11-09T03:44:09;100109.00;;;5.58;100.00
38900;BME280;24660;43.238;26.576;2022-11-09T03:46:34;100110.53;;;5.98;100.00
38900;BME280;24660;43.238;26.576;2022-11-09T03:49:00;100110.09;;;5.88;100.00
38900;BME280;24660;43.238;26.576;2022-11-09T03:51:25;100100.66;;;5.65;100.00
38900;BME280;24660;43.238;26.576;2022-11-09T03:53:50;100112.72;;;5.54;100.00
38900;BME280;24660;43.238;26.576;2022-11-09T03:56:16;100116.16;;;5.92;100.00
38900;BME280;24660;43.238;26.576;2022-11-09T03:58:41;100107.03;;;5.61;100.00
38900;BME280;24660;43.238;26.576;2022-11-09T04:01:07;100105.97;;;5.83;100.00
38900;BME280;24660;43.238;26.576;2022-11-09T04:03:32;100096.28;;;5.64;100.00
38900;BME280;24660;43.238;26.576;2022-11-09T04:05:57;100103.06;;;5.53;100.00
38900;BME280;24660;43.238;26.576;2022-11-09T04:08:23;100105.63;;;5.18;100.00
38900;BME280;24660;43.238;26.576;2022-11-09T04:10:48;100110.53;;;5.45;100.00
38900;BME280;24660;43.238;26.576;2022-11-09T04:13:13;100106.41;;;5.74;100.00
38900;BME280;24660;43.238;26.576;2022-11-09T04:15:39;100112.22;;;5.28;100.00
38900;BME280;24660;43.238;26.576;2022-11-09T04:18:04;100113.41;;;5.40;100.00
38900;BME280;24660;43.238;26.576;2022-11-09T04:20:30;100109.38;;;5.14;100.00
38900;BME280;24660;43.238;26.576;2022-11-09T04:22:56;100109.13;;;5.19;100.00
38900;BME280;24660;43.238;26.576;2022-11-09T04:25:22;100116.56;;;5.29;100.00
38900;BME280;24660;43.238;26.576;2022-11-09T04:27:47;100112.66;;;5.55;100.00
38900;BME280;24660;43.238;26.576;2022-11-09T04:30:12;100110.66;;;5.24;100.00
38900;BME280;24660;43.238;26.576;2022-11-09T04:32:37;100111.91;;;4.80;100.00
38900;BME280;24660;43.238;26.576;2022-11-09T04:35:03;100114.34;;;4.65;100.00
38900;BME280;24660;43.238;26.576;2022-11-09T04:37:28;100121.38;;;4.46;100.00
38900;BME280;24660;43.238;26.576;2022-11-09T04:39:54;100120.94;;;4.36;100.00
38900;BME280;24660;43.238;26.576;2022-11-09T04:42:19;100117.84;;;4.27;100.00
38900;BME280;24660;43.238;26.576;2022-11-09T04:44:44;100117.97;;;4.24;100.00
38900;BME280;24660;43.238;26.576;2022-11-09T04:47:09;100128.69;;;4.41;100.00
38900;BME280;24660;43.238;26.576;2022-11-09T04:49:35;100127.38;;;4.50;100.00
38900;BME280;24660;43.238;26.576;2022-11-09T04:52:00;100128.13;;;4.53;100.00
38900;BME280;24660;43.238;26.576;2022-11-09T04:54:25;100132.50;;;4.73;100.00
38900;BME280;24660;43.238;26.576;2022-11-09T04:56:51;100129.22;;;4.87;100.00
38900;BME280;24660;43.238;26.576;2022-11-09T04:59:16;100131.66;;;5.10;100.00
38900;BME280;24660;43.238;26.576;2022-11-09T05:01:41;100127.00;;;4.96;100.00
38900;BME280;24660;43.238;26.576;2022-11-09T05:04:07;100124.78;;;4.87;100.00
38900;BME280;24660;43.238;26.576;2022-11-09T05:06:32;100124.31;;;4.59;100.00
38900;BME280;24660;43.238;26.576;2022-11-09T05:08:58;100130.50;;;4.78;100.00
38900;BME280;24660;43.238;26.576;2022-11-09T05:11:24;100126.31;;;4.93;100.00
38900;BME280;24660;43.238;26.576;2022-11-09T05:13:49;100138.09;;;4.67;100.00
38900;BME280;24660;43.238;26.576;2022-11-09T05:16:15;100135.06;;;4.74;100.00
38900;BME280;24660;43.238;26.576;2022-11-09T05:18:41;100140.44;;;4.92;100.00
38900;BME280;24660;43.238;26.576;2022-11-09T05:21:07;100140.97;;;5.00;100.00
38900;BME280;24660;43.238;26.576;2022-11-09T05:23:32;100139.09;;;5.02;100.00
38900;BME280;24660;43.238;26.576;2022-11-09T05:26:13;100137.78;;;4.92;100.00
38900;BME280;24660;43.238;26.576;2022-11-09T05:28:38;100145.25;;;5.02;100.00
38900;BME280;24660;43.238;26.576;2022-11-09T05:31:04;100147.50;;;5.48;100.00
38900;BME280;24660;43.238;26.576;2022-11-09T05:33:29;100141.75;;;5.02;100.00
38900;BME280;24660;43.238;26.576;2022-11-09T05:35:55;100146.81;;;4.88;100.00
38900;BME280;24660;43.238;26.576;2022-11-09T05:38:20;100149.00;;;4.80;100.00
38900;BME280;24660;43.238;26.576;2022-11-09T05:40:53;100151.25;;;4.68;100.00
38900;BME280;24660;43.238;26.576;2022-11-09T05:43:19;100168.00;;;4.69;100.00
38900;BME280;24660;43.238;26.576;2022-11-09T05:45:47;100170.22;;;4.78;100.00
38900;BME280;24660;43.238;26.576;2022-11-09T05:48:14;100173.78;;;4.77;100.00
38900;BME280;24660;43.238;26.576;2022-11-09T05:50:40;100187.50;;;4.87;100.00
38900;BME280;24660;43.238;26.576;2022-11-09T05:53:06;100181.78;;;4.96;100.00
38900;BME280;24660;43.238;26.576;2022-11-09T05:55:32;100187.50;;;5.05;100.00
38900;BME280;24660;43.238;26.576;2022-11-09T05:57:57;100189.16;;;5.08;100.00
38900;BME280;24660;43.238;26.576;2022-11-09T06:00:26;100197.69;;;5.15;100.00
38900;BME280;24660;43.238;26.576;2022-11-09T06:02:52;100202.72;;;5.21;100.00
38900;BME280;24660;43.238;26.576;2022-11-09T06:05:20;100198.41;;;5.73;100.00
38900;BME280;24660;43.238;26.576;2022-11-09T06:07:45;100202.84;;;5.91;100.00
38900;BME280;24660;43.238;26.576;2022-11-09T06:10:10;100192.16;;;5.93;100.00
38900;BME280;24660;43.238;26.576;2022-11-09T06:12:36;100196.38;;;5.97;100.00
38900;BME280;24660;43.238;26.576;2022-11-09T06:15:01;100186.22;;;6.05;100.00
38900;BME280;24660;43.238;26.576;2022-11-09T06:17:27;100201.19;;;6.58;100.00
38900;BME280;24660;43.238;26.576;2022-11-09T06:19:52;100198.16;;;6.66;100.00
38900;BME280;24660;43.238;26.576;2022-11-09T06:22:17;100201.22;;;6.91;100.00
38900;BME280;24660;43.238;26.576;2022-11-09T06:24:43;100198.41;;;7.89;100.00
38900;BME280;24660;43.238;26.576;2022-11-09T06:27:08;100186.69;;;8.07;100.00
38900;BME280;24660;43.238;26.576;2022-11-09T06:29:33;100175.31;;;8.19;100.00
38900;BME280;24660;43.238;26.576;2022-11-09T06:31:59;100166.63;;;7.86;100.00
38900;BME280;24660;43.238;26.576;2022-11-09T06:34:24;100167.47;;;8.16;100.00
38900;BME280;24660;43.238;26.576;2022-11-09T06:36:49;100158.13;;;7.95;100.00
38900;BME280;24660;43.238;26.576;2022-11-09T06:39:15;100162.22;;;8.00;100.00
38900;BME280;24660;43.238;26.576;2022-11-09T06:41:40;100169.66;;;8.10;100.00
38900;BME280;24660;43.238;26.576;2022-11-09T06:44:05;100175.63;;;8.59;100.00
38900;BME280;24660;43.238;26.576;2022-11-09T06:46:32;100171.13;;;8.29;100.00
38900;BME280;24660;43.238;26.576;2022-11-09T06:48:57;100170.81;;;8.36;100.00
38900;BME280;24660;43.238;26.576;2022-11-09T06:51:23;100169.00;;;8.36;100.00
38900;BME280;24660;43.238;26.576;2022-11-09T06:53:48;100171.81;;;8.63;100.00
38900;BME280;24660;43.238;26.576;2022-11-09T06:56:13;100173.97;;;8.56;100.00
38900;BME280;24660;43.238;26.576;2022-11-09T06:58:39;100176.84;;;8.96;100.00
38900;BME280;24660;43.238;26.576;2022-11-09T07:01:07;100179.31;;;8.71;100.00
38900;BME280;24660;43.238;26.576;2022-11-09T07:03:33;100179.50;;;9.10;100.00
38900;BME280;24660;43.238;26.576;2022-11-09T07:06:02;100178.53;;;9.67;100.00
38900;BME280;24660;43.238;26.576;2022-11-09T07:08:27;100168.50;;;9.97;100.00
38900;BME280;24660;43.238;26.576;2022-11-09T07:10:52;100162.28;;;9.97;100.00
38900;BME280;24660;43.238;26.576;2022-11-09T07:13:18;100165.31;;;10.45;100.00
38900;BME280;24660;43.238;26.576;2022-11-09T07:15:43;100159.97;;;10.45;100.00
38900;BME280;24660;43.238;26.576;2022-11-09T07:18:09;100156.25;;;10.07;100.00
38900;BME280;24660;43.238;26.576;2022-11-09T07:20:36;100162.06;;;10.27;100.00
38900;BME280;24660;43.238;26.576;2022-11-09T07:23:01;100154.06;;;10.27;100.00
38900;BME280;24660;43.238;26.576;2022-11-09T07:25:29;100155.50;;;10.05;100.00
38900;BME280;24660;43.238;26.576;2022-11-09T07:28:00;100158.66;;;10.37;100.00
38900;BME280;24660;43.238;26.576;2022-11-09T07:30:26;100162.31;;;10.36;100.00
38900;BME280;24660;43.238;26.576;2022-11-09T07:32:52;100164.47;;;10.57;100.00
38900;BME280;24660;43.238;26.576;2022-11-09T07:35:18;100160.38;;;11.02;100.00
38900;BME280;24660;43.238;26.576;2022-11-09T07:37:43;100149.75;;;11.50;100.00
38900;BME280;24660;43.238;26.576;2022-11-09T07:40:09;100152.03;;;11.67;100.00
38900;BME280;24660;43.238;26.576;2022-11-09T07:42:34;100141.94;;;11.83;100.00
38900;BME280;24660;43.238;26.576;2022-11-09T07:45:00;100152.09;;;12.37;100.00
38900;BME280;24660;43.238;26.576;2022-11-09T07:47:25;100152.16;;;12.60;98.34
38900;BME280;24660;43.238;26.576;2022-11-09T07:49:50;100149.25;;;13.52;96.58
38900;BME280;24660;43.238;26.576;2022-11-09T07:52:15;100146.69;;;13.94;93.53
38900;BME280;24660;43.238;26.576;2022-11-09T07:54:41;100158.13;;;14.28;89.60
38900;BME280;24660;43.238;26.576;2022-11-09T07:57:06;100162.09;;;14.45;87.58
38900;BME280;24660;43.238;26.576;2022-11-09T07:59:32;100144.97;;;12.94;87.97
38900;BME280;24660;43.238;26.576;2022-11-09T08:01:57;100156.84;;;13.14;90.47
38900;BME280;24660;43.238;26.576;2022-11-09T08:04:23;100142.75;;;11.97;92.94
38900;BME280;24660;43.238;26.576;2022-11-09T08:06:51;100147.41;;;11.82;98.41
38900;BME280;24660;43.238;26.576;2022-11-09T08:09:17;100146.94;;;12.12;100.00
38900;BME280;24660;43.238;26.576;2022-11-09T08:11:46;100154.06;;;13.26;96.32
38900;BME280;24660;43.238;26.576;2022-11-09T08:14:11;100151.16;;;13.61;96.63
38900;BME280;24660;43.238;26.576;2022-11-09T08:16:36;100154.97;;;13.48;93.98
38900;BME280;24660;43.238;26.576;2022-11-09T08:19:04;100151.53;;;13.68;93.98
38900;BME280;24660;43.238;26.576;2022-11-09T08:21:38;100138.94;;;14.01;91.55
38900;BME280;24660;43.238;26.576;2022-11-09T08:24:10;100152.06;;;13.94;92.14
38900;BME280;24660;43.238;26.576;2022-11-09T08:26:47;100151.13;;;13.73;93.63
38900;BME280;24660;43.238;26.576;2022-11-09T08:29:15;100147.53;;;14.15;91.82
38900;BME280;24660;43.238;26.576;2022-11-09T08:31:41;100154.44;;;14.08;90.97
38900;BME280;24660;43.238;26.576;2022-11-09T08:34:09;100154.84;;;14.24;89.00
38900;BME280;24660;43.238;26.576;2022-11-09T08:36:44;100156.28;;;14.08;90.74
38900;BME280;24660;43.238;26.576;2022-11-09T08:39:09;100149.22;;;13.95;89.81
38900;BME280;24660;43.238;26.576;2022-11-09T08:41:37;100149.69;;;14.21;89.09
38900;BME280;24660;43.238;26.576;2022-11-09T08:44:02;100152.69;;;14.39;86.96
38900;BME280;24660;43.238;26.576;2022-11-09T08:46:28;100149.69;;;14.21;87.11
38900;BME280;24660;43.238;26.576;2022-11-09T08:48:53;100152.97;;;14.78;86.72
38900;BME280;24660;43.238;26.576;2022-11-09T08:51:19;100150.56;;;15.15;84.38
38900;BME280;24660;43.238;26.576;2022-11-09T08:53:44;100155.03;;;14.95;83.86
38900;BME280;24660;43.238;26.576;2022-11-09T08:56:09;100149.53;;;14.76;85.09
38900;BME280;24660;43.238;26.576;2022-11-09T08:58:37;100146.44;;;15.11;83.18
38900;BME280;24660;43.238;26.576;2022-11-09T09:01:06;100146.34;;;15.22;82.71
38900;BME280;24660;43.238;26.576;2022-11-09T09:03:32;100144.00;;;15.38;82.84
38900;BME280;24660;43.238;26.576;2022-11-09T09:06:02;100146.66;;;15.29;82.03
38900;BME280;24660;43.238;26.576;2022-11-09T09:08:28;100137.53;;;14.80;82.25
38900;BME280;24660;43.238;26.576;2022-11-09T09:10:53;100137.50;;;15.51;82.28
38900;BME280;24660;43.238;26.576;2022-11-09T09:13:19;100140.16;;;15.41;80.21
38900;BME280;24660;43.238;26.576;2022-11-09T09:15:46;100128.97;;;15.36;80.75
38900;BME280;24660;43.238;26.576;2022-11-09T09:18:14;100130.44;;;15.19;81.41
38900;BME280;24660;43.238;26.576;2022-11-09T09:20:39;100125.84;;;15.00;80.73
38900;BME280;24660;43.238;26.576;2022-11-09T09:23:05;100121.88;;;15.44;80.66
38900;BME280;24660;43.238;26.576;2022-11-09T09:25:30;100115.72;;;15.63;79.18
38900;BME280;24660;43.238;26.576;2022-11-09T09:27:55;100116.72;;;15.91;78.50
38900;BME280;24660;43.238;26.576;2022-11-09T09:30:21;100112.88;;;15.84;77.67
38900;BME280;24660;43.238;26.576;2022-11-09T09:32:46;100116.97;;;16.37;76.18
38900;BME280;24660;43.238;26.576;2022-11-09T09:35:11;100112.16;;;16.21;78.21
38900;BME280;24660;43.238;26.576;2022-11-09T09:37:37;100109.75;;;16.08;77.84
38900;BME280;24660;43.238;26.576;2022-11-09T09:40:02;100102.03;;;16.32;76.51
38900;BME280;24660;43.238;26.576;2022-11-09T09:45:07;100107.31;;;16.34;74.46
38900;BME280;24660;43.238;26.576;2022-11-09T09:50:03;100096.41;;;15.87;76.11
38900;BME280;24660;43.238;26.576;2022-11-09T09:52:35;100097.94;;;16.38;74.51
38900;BME280;24660;43.238;26.576;2022-11-09T09:55:06;100088.59;;;16.13;74.77
38900;BME280;24660;43.238;26.576;2022-11-09T09:57:33;100104.47;;;16.16;75.17
38900;BME280;24660;43.238;26.576;2022-11-09T10:00:00;100089.56;;;16.31;74.59
38900;BME280;24660;43.238;26.576;2022-11-09T10:02:27;100081.66;;;16.11;74.13
38900;BME280;24660;43.238;26.576;2022-11-09T10:04:54;100088.66;;;16.97;73.39
38900;BME280;24660;43.238;26.576;2022-11-09T10:09:52;100084.50;;;17.03;71.30
38900;BME280;24660;43.238;26.576;2022-11-09T10:17:53;100077.34;;;16.84;71.26
38900;BME280;24660;43.238;26.576;2022-11-09T10:23:07;100083.97;;;16.99;71.45
38900;BME280;24660;43.238;26.576;2022-11-09T10:25:38;100081.72;;;16.95;70.76
38900;BME280;24660;43.238;26.576;2022-11-09T10:28:09;100067.22;;;17.41;69.60
38900;BME280;24660;43.238;26.576;2022-11-09T10:30:35;100073.19;;;17.44;68.69
38900;BME280;24660;43.238;26.576;2022-11-09T10:33:17;100069.88;;;17.05;68.82
38900;BME280;24660;43.238;26.576;2022-11-09T10:35:50;100066.31;;;17.32;69.48
38900;BME280;24660;43.238;26.576;2022-11-09T10:38:19;100056.22;;;17.52;68.14
38900;BME280;24660;43.238;26.576;2022-11-09T10:40:51;100062.53;;;17.43;68.13
38900;BME280;24660;43.238;26.576;2022-11-09T10:43:17;100062.66;;;17.24;67.54
38900;BME280;24660;43.238;26.576;2022-11-09T10:45:43;100067.34;;;17.49;68.34
38900;BME280;24660;43.238;26.576;2022-11-09T10:48:10;100059.97;;;16.96;68.57
38900;BME280;24660;43.238;26.576;2022-11-09T10:50:37;100053.16;;;16.45;70.26
38900;BME280;24660;43.238;26.576;2022-11-09T10:53:08;100058.94;;;16.60;70.61
38900;BME280;24660;43.238;26.576;2022-11-09T10:55:33;100054.69;;;16.57;69.89
38900;BME280;24660;43.238;26.576;2022-11-09T11:03:22;100046.88;;;16.64;69.53
38900;BME280;24660;43.238;26.576;2022-11-09T11:05:55;100038.81;;;16.54;70.60
38900;BME280;24660;43.238;26.576;2022-11-09T11:08:30;100040.34;;;16.57;70.45
38900;BME280;24660;43.238;26.576;2022-11-09T11:13:36;100045.13;;;16.73;69.74
38900;BME280;24660;43.238;26.576;2022-11-09T11:16:11;100036.34;;;16.98;68.63
38900;BME280;24660;43.238;26.576;2022-11-09T11:18:37;100038.19;;;16.70;68.94
38900;BME280;24660;43.238;26.576;2022-11-09T11:21:16;100036.16;;;16.82;69.15
38900;BME280;24660;43.238;26.576;2022-11-09T11:23:42;100034.16;;;16.84;69.05
38900;BME280;24660;43.238;26.576;2022-11-09T11:26:19;100027.41;;;16.98;67.54
38900;BME280;24660;43.238;26.576;2022-11-09T11:31:27;100030.53;;;17.20;68.04
38900;BME280;24660;43.238;26.576;2022-11-09T11:33:53;100024.53;;;17.44;67.23
38900;BME280;24660;43.238;26.576;2022-11-09T11:38:50;100027.25;;;17.62;65.87
38900;BME280;24660;43.238;26.576;2022-11-09T11:43:51;100018.41;;;17.25;66.41
38900;BME280;24660;43.238;26.576;2022-11-09T11:46:24;100028.75;;;17.29;66.21
38900;BME280;24660;43.238;26.576;2022-11-09T11:49:05;100021.78;;;16.91;67.74
38900;BME280;24660;43.238;26.576;2022-11-09T11:54:05;100022.25;;;17.04;67.86
38900;BME280;24660;43.238;26.576;2022-11-09T11:56:33;100020.50;;;17.13;65.95
38900;BME280;24660;43.238;26.576;2022-11-09T12:09:22;100004.06;;;17.24;65.73
38900;BME280;24660;43.238;26.576;2022-11-09T12:29:28;100002.34;;;17.05;65.86
38900;BME280;24660;43.238;26.576;2022-11-09T12:36:51;99996.50;;;17.10;65.48
38900;BME280;24660;43.238;26.576;2022-11-09T12:39:20;99993.09;;;17.26;65.26
38900;BME280;24660;43.238;26.576;2022-11-09T12:41:47;99985.31;;;17.23;65.89
38900;BME280;24660;43.238;26.576;2022-11-09T12:46:39;99986.84;;;17.43;64.52
38900;BME280;24660;43.238;26.576;2022-11-09T12:49:07;99981.75;;;17.22;64.73
38900;BME280;24660;43.238;26.576;2022-11-09T12:51:37;99996.16;;;16.95;65.86
38900;BME280;24660;43.238;26.576;2022-11-09T12:54:04;99995.31;;;17.12;64.75
38900;BME280;24660;43.238;26.576;2022-11-09T12:56:34;99987.63;;;17.17;64.82
38900;BME280;24660;43.238;26.576;2022-11-09T13:00:13;99988.59;;;16.99;65.54
38900;BME280;24660;43.238;26.576;2022-11-09T13:01:49;99993.94;;;17.08;64.69
38900;BME280;24660;43.238;26.576;2022-11-09T13:04:17;99989.38;;;17.09;64.87
38900;BME280;24660;43.238;26.576;2022-11-09T13:06:48;99989.06;;;16.94;65.17
38900;BME280;24660;43.238;26.576;2022-11-09T13:09:28;99992.84;;;17.01;65.10
38900;BME280;24660;43.238;26.576;2022-11-09T13:11:54;99991.75;;;16.94;65.08
38900;BME280;24660;43.238;26.576;2022-11-09T13:16:45;99992.91;;;16.91;65.06
38900;BME280;24660;43.238;26.576;2022-11-09T13:19:11;99986.03;;;16.97;65.34
38900;BME280;24660;43.238;26.576;2022-11-09T13:21:56;99982.16;;;16.82;65.67
38900;BME280;24660;43.238;26.576;2022-11-09T13:25:02;99984.75;;;16.74;66.21
38900;BME280;24660;43.238;26.576;2022-11-09T13:27:29;99983.97;;;16.54;65.51
38900;BME280;24660;43.238;26.576;2022-11-09T13:29:52;99985.13;;;16.51;65.90
38900;BME280;24660;43.238;26.576;2022-11-09T13:39:48;99984.59;;;16.38;66.25
38900;BME280;24660;43.238;26.576;2022-11-09T13:42:23;99988.72;;;16.32;66.37
38900;BME280;24660;43.238;26.576;2022-11-09T13:44:50;99986.31;;;16.39;66.46
38900;BME280;24660;43.238;26.576;2022-11-09T13:47:19;99987.66;;;16.16;67.28
38900;BME280;24660;43.238;26.576;2022-11-09T13:49:46;99990.09;;;16.19;67.05
38900;BME280;24660;43.238;26.576;2022-11-09T13:54:53;99991.25;;;16.07;66.58
38900;BME280;24660;43.238;26.576;2022-11-09T13:57:18;99985.53;;;16.19;66.12
38900;BME280;24660;43.238;26.576;2022-11-09T13:59:45;99984.72;;;16.09;66.87
38900;BME280;24660;43.238;26.576;2022-11-09T14:02:17;99991.41;;;16.05;66.91
38900;BME280;24660;43.238;26.576;2022-11-09T14:04:43;99995.19;;;16.12;66.57